sensor_id;sensor_type;location;lat;lon;timestamp;P1;durP1;ratioP1;P2;durP2;ratioP2
12687;SDS011;6408;59.388;17.798;2022-07-15T00:02:24;0.40;;;0.40;;
12687;SDS011;6408;59.388;17.798;2022-07-15T00:04:51;0.47;;;0.40;;
12687;SDS011;6408;59.388;17.798;2022-07-15T00:07:18;0.22;;;0.22;;
12687;SDS011;6408;59.388;17.798;2022-07-15T00:09:45;0.28;;;0.22;;
12687;SDS011;6408;59.388;17.798;2022-07-15T00:12:29;0.95;;;0.20;;
12687;SDS011;6408;59.388;17.798;2022-07-15T00:14:56;1.17;;;0.40;;
12687;SDS011;6408;59.388;17.798;2022-07-15T00:17:24;0.28;;;0.20;;
12687;SDS011;6408;59.388;17.798;2022-07-15T00:19:52;0.75;;;0.20;;
12687;SDS011;6408;59.388;17.798;2022-07-15T00:22:19;0.38;;;0.38;;
12687;SDS011;6408;59.388;17.798;2022-07-15T00:24:46;0.20;;;0.20;;
12687;SDS011;6408;59.388;17.798;2022-07-15T00:27:13;0.77;;;0.40;;
12687;SDS011;6408;59.388;17.798;2022-07-15T00:29:40;0.10;;;0.10;;
12687;SDS011;6408;59.388;17.798;2022-07-15T00:32:07;0.10;;;0.10;;
12687;SDS011;6408;59.388;17.798;2022-07-15T00:34:35;0.30;;;0.30;;
12687;SDS011;6408;59.388;17.798;2022-07-15T00:37:02;0.63;;;0.38;;
12687;SDS011;6408;59.388;17.798;2022-07-15T00:39:29;0.30;;;0.30;;
12687;SDS011;6408;59.388;17.798;2022-07-15T00:41:55;0.10;;;0.10;;
12687;SDS011;6408;59.388;17.798;2022-07-15T00:44:22;0.25;;;0.25;;
12687;SDS011;6408;59.388;17.798;2022-07-15T00:46:49;0.38;;;0.38;;
12687;SDS011;6408;59.388;17.798;2022-07-15T00:49:17;0.38;;;0.38;;
12687;SDS011;6408;59.388;17.798;2022-07-15T00:51:46;0.20;;;0.20;;
12687;SDS011;6408;59.388;17.798;2022-07-15T00:54:16;0.40;;;0.40;;
12687;SDS011;6408;59.388;17.798;2022-07-15T00:56:49;0.20;;;0.20;;
12687;SDS011;6408;59.388;17.798;2022-07-15T00:59:17;0.98;;;0.20;;
12687;SDS011;6408;59.388;17.798;2022-07-15T01:01:47;0.20;;;0.20;;
12687;SDS011;6408;59.388;17.798;2022-07-15T01:04:14;2.50;;;0.30;;
12687;SDS011;6408;59.388;17.798;2022-07-15T01:06:45;0.90;;;0.47;;
12687;SDS011;6408;59.388;17.798;2022-07-15T01:09:12;0.20;;;0.20;;
12687;SDS011;6408;59.388;17.798;2022-07-15T01:11:39;0.30;;;0.30;;
12687;SDS011;6408;59.388;17.798;2022-07-15T01:14:06;0.93;;;0.37;;
12687;SDS011;6408;59.388;17.798;2022-07-15T01:16:33;2.15;;;0.35;;
12687;SDS011;6408;59.388;17.798;2022-07-15T01:19:00;0.20;;;0.20;;
12687;SDS011;6408;59.388;17.798;2022-07-15T01:21:28;0.20;;;0.20;;
12687;SDS011;6408;59.388;17.798;2022-07-15T01:23:55;0.22;;;0.20;;
12687;SDS011;6408;59.388;17.798;2022-07-15T01:26:22;0.53;;;0.30;;
12687;SDS011;6408;59.388;17.798;2022-07-15T01:28:49;0.28;;;0.25;;
12687;SDS011;6408;59.388;17.798;2022-07-15T01:31:16;2.50;;;0.30;;
12687;SDS011;6408;59.388;17.798;2022-07-15T01:33:42;0.97;;;0.33;;
12687;SDS011;6408;59.388;17.798;2022-07-15T01:36:10;0.30;;;0.30;;
12687;SDS011;6408;59.388;17.798;2022-07-15T01:38:38;0.20;;;0.20;;
12687;SDS011;6408;59.388;17.798;2022-07-15T01:41:05;0.30;;;0.30;;
12687;SDS011;6408;59.388;17.798;2022-07-15T01:43:32;0.17;;;0.17;;
12687;SDS011;6408;59.388;17.798;2022-07-15T01:45:59;0.20;;;0.20;;
12687;SDS011;6408;59.388;17.798;2022-07-15T01:48:29;0.20;;;0.20;;
12687;SDS011;6408;59.388;17.798;2022-07-15T01:51:13;0.30;;;0.20;;
12687;SDS011;6408;59.388;17.798;2022-07-15T01:53:42;0.60;;;0.30;;
12687;SDS011;6408;59.388;17.798;2022-07-15T01:56:08;0.20;;;0.20;;
12687;SDS011;6408;59.388;17.798;2022-07-15T01:58:36;0.20;;;0.20;;
12687;SDS011;6408;59.388;17.798;2022-07-15T02:01:03;0.20;;;0.20;;
12687;SDS011;6408;59.388;17.798;2022-07-15T02:03:31;1.20;;;0.30;;
12687;SDS011;6408;59.388;17.798;2022-07-15T02:05:58;0.20;;;0.20;;
12687;SDS011;6408;59.388;17.798;2022-07-15T02:08:25;0.10;;;0.10;;
12687;SDS011;6408;59.388;17.798;2022-07-15T02:10:53;0.20;;;0.20;;
12687;SDS011;6408;59.388;17.798;2022-07-15T02:13:20;0.87;;;0.20;;
12687;SDS011;6408;59.388;17.798;2022-07-15T02:15:47;1.03;;;0.40;;
12687;SDS011;6408;59.388;17.798;2022-07-15T02:18:14;0.93;;;0.27;;
12687;SDS011;6408;59.388;17.798;2022-07-15T02:20:41;0.03;;;0.03;;
12687;SDS011;6408;59.388;17.798;2022-07-15T02:23:31;0.73;;;0.43;;
12687;SDS011;6408;59.388;17.798;2022-07-15T02:26:00;0.20;;;0.20;;
12687;SDS011;6408;59.388;17.798;2022-07-15T02:28:27;1.85;;;0.30;;
12687;SDS011;6408;59.388;17.798;2022-07-15T02:30:54;0.73;;;0.17;;
12687;SDS011;6408;59.388;17.798;2022-07-15T02:33:20;0.20;;;0.20;;
12687;SDS011;6408;59.388;17.798;2022-07-15T02:35:47;1.10;;;0.20;;
12687;SDS011;6408;59.388;17.798;2022-07-15T02:38:14;0.32;;;0.32;;
12687;SDS011;6408;59.388;17.798;2022-07-15T02:40:42;0.30;;;0.30;;
12687;SDS011;6408;59.388;17.798;2022-07-15T02:46:30;0.53;;;0.20;;
12687;SDS011;6408;59.388;17.798;2022-07-15T02:48:57;0.32;;;0.32;;
12687;SDS011;6408;59.388;17.798;2022-07-15T02:51:24;0.17;;;0.17;;
12687;SDS011;6408;59.388;17.798;2022-07-15T02:53:54;0.20;;;0.20;;
12687;SDS011;6408;59.388;17.798;2022-07-15T02:56:28;0.13;;;0.13;;
12687;SDS011;6408;59.388;17.798;2022-07-15T02:58:56;1.08;;;0.20;;
12687;SDS011;6408;59.388;17.798;2022-07-15T03:01:26;0.40;;;0.40;;
12687;SDS011;6408;59.388;17.798;2022-07-15T03:03:54;0.20;;;0.20;;
12687;SDS011;6408;59.388;17.798;2022-07-15T03:06:21;0.20;;;0.20;;
12687;SDS011;6408;59.388;17.798;2022-07-15T03:08:48;0.57;;;0.20;;
12687;SDS011;6408;59.388;17.798;2022-07-15T03:11:16;0.93;;;0.20;;
12687;SDS011;6408;59.388;17.798;2022-07-15T03:13:42;0.17;;;0.17;;
12687;SDS011;6408;59.388;17.798;2022-07-15T03:16:10;0.73;;;0.20;;
12687;SDS011;6408;59.388;17.798;2022-07-15T03:18:37;1.40;;;0.20;;
12687;SDS011;6408;59.388;17.798;2022-07-15T03:21:05;0.20;;;0.20;;
12687;SDS011;6408;59.388;17.798;2022-07-15T03:23:32;1.20;;;0.20;;
12687;SDS011;6408;59.388;17.798;2022-07-15T03:25:59;0.13;;;0.13;;
12687;SDS011;6408;59.388;17.798;2022-07-15T03:28:26;0.10;;;0.10;;
12687;SDS011;6408;59.388;17.798;2022-07-15T03:30:53;0.20;;;0.20;;
12687;SDS011;6408;59.388;17.798;2022-07-15T03:33:32;1.37;;;0.20;;
12687;SDS011;6408;59.388;17.798;2022-07-15T03:36:02;0.33;;;0.30;;
12687;SDS011;6408;59.388;17.798;2022-07-15T03:38:31;0.30;;;0.30;;
12687;SDS011;6408;59.388;17.798;2022-07-15T03:40:58;0.30;;;0.30;;
12687;SDS011;6408;59.388;17.798;2022-07-15T03:43:25;0.67;;;0.50;;
12687;SDS011;6408;59.388;17.798;2022-07-15T03:45:54;0.33;;;0.33;;
12687;SDS011;6408;59.388;17.798;2022-07-15T03:48:22;0.80;;;0.40;;
12687;SDS011;6408;59.388;17.798;2022-07-15T03:50:49;1.20;;;0.40;;
12687;SDS011;6408;59.388;17.798;2022-07-15T03:53:15;0.43;;;0.30;;
12687;SDS011;6408;59.388;17.798;2022-07-15T03:55:44;1.47;;;0.33;;
12687;SDS011;6408;59.388;17.798;2022-07-15T03:58:10;0.40;;;0.40;;
12687;SDS011;6408;59.388;17.798;2022-07-15T04:00:39;0.47;;;0.43;;
12687;SDS011;6408;59.388;17.798;2022-07-15T04:03:10;1.57;;;0.40;;
12687;SDS011;6408;59.388;17.798;2022-07-15T04:05:37;0.50;;;0.40;;
12687;SDS011;6408;59.388;17.798;2022-07-15T04:08:05;0.20;;;0.20;;
12687;SDS011;6408;59.388;17.798;2022-07-15T04:10:32;0.57;;;0.37;;
12687;SDS011;6408;59.388;17.798;2022-07-15T04:13:00;1.00;;;0.30;;
12687;SDS011;6408;59.388;17.798;2022-07-15T04:15:27;0.43;;;0.30;;
12687;SDS011;6408;59.388;17.798;2022-07-15T04:17:54;0.77;;;0.43;;
12687;SDS011;6408;59.388;17.798;2022-07-15T04:20:23;0.93;;;0.33;;
12687;SDS011;6408;59.388;17.798;2022-07-15T04:22:50;0.43;;;0.20;;
12687;SDS011;6408;59.388;17.798;2022-07-15T04:25:17;2.67;;;0.60;;
12687;SDS011;6408;59.388;17.798;2022-07-15T04:27:46;1.37;;;0.50;;
12687;SDS011;6408;59.388;17.798;2022-07-15T04:30:15;1.03;;;0.47;;
12687;SDS011;6408;59.388;17.798;2022-07-15T04:32:43;0.80;;;0.40;;
12687;SDS011;6408;59.388;17.798;2022-07-15T04:35:09;1.20;;;0.37;;
12687;SDS011;6408;59.388;17.798;2022-07-15T04:37:36;0.80;;;0.40;;
12687;SDS011;6408;59.388;17.798;2022-07-15T04:40:03;1.23;;;0.50;;
12687;SDS011;6408;59.388;17.798;2022-07-15T04:42:32;0.30;;;0.23;;
12687;SDS011;6408;59.388;17.798;2022-07-15T04:44:59;1.60;;;0.43;;
12687;SDS011;6408;59.388;17.798;2022-07-15T04:47:27;1.43;;;0.40;;
12687;SDS011;6408;59.388;17.798;2022-07-15T04:49:54;0.60;;;0.20;;
12687;SDS011;6408;59.388;17.798;2022-07-15T04:52:41;1.13;;;0.40;;
12687;SDS011;6408;59.388;17.798;2022-07-15T04:55:09;1.80;;;0.50;;
12687;SDS011;6408;59.388;17.798;2022-07-15T04:57:37;0.47;;;0.38;;
12687;SDS011;6408;59.388;17.798;2022-07-15T05:00:04;0.80;;;0.50;;
12687;SDS011;6408;59.388;17.798;2022-07-15T05:02:34;0.43;;;0.43;;
12687;SDS011;6408;59.388;17.798;2022-07-15T05:05:01;0.45;;;0.40;;
12687;SDS011;6408;59.388;17.798;2022-07-15T05:07:28;2.22;;;0.60;;
12687;SDS011;6408;59.388;17.798;2022-07-15T05:09:55;1.87;;;0.50;;
12687;SDS011;6408;59.388;17.798;2022-07-15T05:12:22;1.75;;;0.40;;
12687;SDS011;6408;59.388;17.798;2022-07-15T05:14:48;0.85;;;0.40;;
12687;SDS011;6408;59.388;17.798;2022-07-15T05:17:15;0.60;;;0.38;;
12687;SDS011;6408;59.388;17.798;2022-07-15T05:19:43;0.73;;;0.28;;
12687;SDS011;6408;59.388;17.798;2022-07-15T05:22:10;1.20;;;0.25;;
12687;SDS011;6408;59.388;17.798;2022-07-15T05:24:37;1.08;;;0.40;;
12687;SDS011;6408;59.388;17.798;2022-07-15T05:27:03;0.63;;;0.43;;
12687;SDS011;6408;59.388;17.798;2022-07-15T05:29:30;0.77;;;0.43;;
12687;SDS011;6408;59.388;17.798;2022-07-15T05:31:57;0.52;;;0.52;;
12687;SDS011;6408;59.388;17.798;2022-07-15T05:34:24;0.88;;;0.52;;
12687;SDS011;6408;59.388;17.798;2022-07-15T05:36:52;0.70;;;0.50;;
12687;SDS011;6408;59.388;17.798;2022-07-15T05:39:18;0.45;;;0.40;;
12687;SDS011;6408;59.388;17.798;2022-07-15T05:41:45;0.60;;;0.47;;
12687;SDS011;6408;59.388;17.798;2022-07-15T05:44:13;1.30;;;0.60;;
12687;SDS011;6408;59.388;17.798;2022-07-15T05:46:40;1.55;;;0.52;;
12687;SDS011;6408;59.388;17.798;2022-07-15T05:49:07;0.98;;;0.52;;
12687;SDS011;6408;59.388;17.798;2022-07-15T05:51:36;0.70;;;0.30;;
12687;SDS011;6408;59.388;17.798;2022-07-15T05:54:05;2.38;;;0.45;;
12687;SDS011;6408;59.388;17.798;2022-07-15T05:56:32;0.75;;;0.57;;
12687;SDS011;6408;59.388;17.798;2022-07-15T05:58:59;0.60;;;0.40;;
12687;SDS011;6408;59.388;17.798;2022-07-15T06:01:25;2.35;;;0.43;;
12687;SDS011;6408;59.388;17.798;2022-07-15T06:03:52;1.05;;;0.50;;
12687;SDS011;6408;59.388;17.798;2022-07-15T06:06:19;0.85;;;0.60;;
12687;SDS011;6408;59.388;17.798;2022-07-15T06:08:46;1.45;;;0.50;;
12687;SDS011;6408;59.388;17.798;2022-07-15T06:11:14;4.05;;;1.05;;
12687;SDS011;6408;59.388;17.798;2022-07-15T06:13:41;2.50;;;0.50;;
12687;SDS011;6408;59.388;17.798;2022-07-15T06:16:07;0.70;;;0.50;;
12687;SDS011;6408;59.388;17.798;2022-07-15T06:18:34;1.98;;;0.65;;
12687;SDS011;6408;59.388;17.798;2022-07-15T06:21:02;1.75;;;0.70;;
12687;SDS011;6408;59.388;17.798;2022-07-15T06:23:29;3.22;;;0.80;;
12687;SDS011;6408;59.388;17.798;2022-07-15T06:25:55;2.65;;;0.80;;
12687;SDS011;6408;59.388;17.798;2022-07-15T06:28:24;2.83;;;0.90;;
12687;SDS011;6408;59.388;17.798;2022-07-15T06:30:51;0.93;;;0.57;;
12687;SDS011;6408;59.388;17.798;2022-07-15T06:33:18;1.38;;;0.60;;
12687;SDS011;6408;59.388;17.798;2022-07-15T06:35:44;0.75;;;0.52;;
12687;SDS011;6408;59.388;17.798;2022-07-15T06:38:11;1.42;;;0.60;;
12687;SDS011;6408;59.388;17.798;2022-07-15T06:40:38;1.10;;;0.73;;
12687;SDS011;6408;59.388;17.798;2022-07-15T06:43:05;1.95;;;0.95;;
12687;SDS011;6408;59.388;17.798;2022-07-15T06:45:33;1.98;;;0.70;;
12687;SDS011;6408;59.388;17.798;2022-07-15T06:47:59;0.90;;;0.65;;
12687;SDS011;6408;59.388;17.798;2022-07-15T06:50:26;1.77;;;0.90;;
12687;SDS011;6408;59.388;17.798;2022-07-15T06:52:53;1.23;;;0.65;;
12687;SDS011;6408;59.388;17.798;2022-07-15T06:55:20;2.92;;;0.65;;
12687;SDS011;6408;59.388;17.798;2022-07-15T06:57:47;1.15;;;0.68;;
12687;SDS011;6408;59.388;17.798;2022-07-15T07:00:14;5.85;;;0.73;;
12687;SDS011;6408;59.388;17.798;2022-07-15T07:02:42;0.95;;;0.80;;
12687;SDS011;6408;59.388;17.798;2022-07-15T07:05:10;1.10;;;0.63;;
12687;SDS011;6408;59.388;17.798;2022-07-15T07:07:36;1.58;;;1.00;;
12687;SDS011;6408;59.388;17.798;2022-07-15T07:10:03;1.85;;;0.70;;
12687;SDS011;6408;59.388;17.798;2022-07-15T07:12:31;1.60;;;0.60;;
12687;SDS011;6408;59.388;17.798;2022-07-15T07:14:58;3.40;;;0.90;;
12687;SDS011;6408;59.388;17.798;2022-07-15T07:17:26;2.60;;;0.85;;
12687;SDS011;6408;59.388;17.798;2022-07-15T07:19:54;1.48;;;0.65;;
12687;SDS011;6408;59.388;17.798;2022-07-15T07:22:21;1.25;;;0.70;;
12687;SDS011;6408;59.388;17.798;2022-07-15T07:24:47;2.47;;;0.90;;
12687;SDS011;6408;59.388;17.798;2022-07-15T07:27:14;1.75;;;1.10;;
12687;SDS011;6408;59.388;17.798;2022-07-15T07:29:41;5.07;;;1.02;;
12687;SDS011;6408;59.388;17.798;2022-07-15T07:32:08;2.40;;;0.85;;
12687;SDS011;6408;59.388;17.798;2022-07-15T07:34:34;1.05;;;0.90;;
12687;SDS011;6408;59.388;17.798;2022-07-15T07:37:02;3.38;;;1.20;;
12687;SDS011;6408;59.388;17.798;2022-07-15T07:39:30;3.08;;;0.85;;
12687;SDS011;6408;59.388;17.798;2022-07-15T07:41:57;1.40;;;0.73;;
12687;SDS011;6408;59.388;17.798;2022-07-15T07:44:23;1.50;;;0.60;;
12687;SDS011;6408;59.388;17.798;2022-07-15T07:46:50;2.03;;;0.98;;
12687;SDS011;6408;59.388;17.798;2022-07-15T07:49:17;3.63;;;0.70;;
12687;SDS011;6408;59.388;17.798;2022-07-15T07:51:44;2.85;;;0.75;;
12687;SDS011;6408;59.388;17.798;2022-07-15T07:54:12;2.30;;;0.90;;
12687;SDS011;6408;59.388;17.798;2022-07-15T07:56:39;2.30;;;0.70;;
12687;SDS011;6408;59.388;17.798;2022-07-15T07:59:05;3.30;;;0.90;;
12687;SDS011;6408;59.388;17.798;2022-07-15T08:01:32;1.15;;;0.70;;
12687;SDS011;6408;59.388;17.798;2022-07-15T08:03:59;0.75;;;0.55;;
12687;SDS011;6408;59.388;17.798;2022-07-15T08:06:26;1.75;;;1.10;;
12687;SDS011;6408;59.388;17.798;2022-07-15T08:08:53;4.22;;;0.88;;
12687;SDS011;6408;59.388;17.798;2022-07-15T08:11:21;2.15;;;0.90;;
12687;SDS011;6408;59.388;17.798;2022-07-15T08:13:48;1.25;;;0.60;;
12687;SDS011;6408;59.388;17.798;2022-07-15T08:16:14;1.88;;;0.60;;
12687;SDS011;6408;59.388;17.798;2022-07-15T08:18:41;1.58;;;0.73;;
12687;SDS011;6408;59.388;17.798;2022-07-15T08:21:09;0.95;;;0.80;;
12687;SDS011;6408;59.388;17.798;2022-07-15T08:23:36;0.85;;;0.60;;
12687;SDS011;6408;59.388;17.798;2022-07-15T08:26:03;5.72;;;0.88;;
12687;SDS011;6408;59.388;17.798;2022-07-15T08:28:32;3.15;;;0.90;;
12687;SDS011;6408;59.388;17.798;2022-07-15T08:31:00;2.70;;;0.70;;
12687;SDS011;6408;59.388;17.798;2022-07-15T08:33:27;1.92;;;0.70;;
12687;SDS011;6408;59.388;17.798;2022-07-15T08:35:54;2.45;;;0.60;;
12687;SDS011;6408;59.388;17.798;2022-07-15T08:38:21;1.30;;;0.75;;
12687;SDS011;6408;59.388;17.798;2022-07-15T08:40:48;1.92;;;0.77;;
12687;SDS011;6408;59.388;17.798;2022-07-15T08:43:15;1.25;;;0.60;;
12687;SDS011;6408;59.388;17.798;2022-07-15T08:45:43;1.77;;;0.60;;
12687;SDS011;6408;59.388;17.798;2022-07-15T08:48:10;1.50;;;0.52;;
12687;SDS011;6408;59.388;17.798;2022-07-15T08:50:38;1.33;;;0.70;;
12687;SDS011;6408;59.388;17.798;2022-07-15T08:53:07;1.45;;;0.80;;
12687;SDS011;6408;59.388;17.798;2022-07-15T08:55:34;1.90;;;0.75;;
12687;SDS011;6408;59.388;17.798;2022-07-15T08:58:00;1.40;;;0.68;;
12687;SDS011;6408;59.388;17.798;2022-07-15T09:00:27;1.65;;;0.68;;
12687;SDS011;6408;59.388;17.798;2022-07-15T09:02:57;1.27;;;0.70;;
12687;SDS011;6408;59.388;17.798;2022-07-15T09:05:26;3.05;;;0.80;;
12687;SDS011;6408;59.388;17.798;2022-07-15T09:07:56;1.10;;;0.68;;
12687;SDS011;6408;59.388;17.798;2022-07-15T09:10:47;1.00;;;0.80;;
12687;SDS011;6408;59.388;17.798;2022-07-15T09:13:21;1.50;;;0.85;;
12687;SDS011;6408;59.388;17.798;2022-07-15T09:15:54;2.33;;;0.73;;
12687;SDS011;6408;59.388;17.798;2022-07-15T09:18:24;2.45;;;0.90;;
12687;SDS011;6408;59.388;17.798;2022-07-15T09:20:52;2.15;;;0.82;;
12687;SDS011;6408;59.388;17.798;2022-07-15T09:23:21;2.15;;;0.70;;
12687;SDS011;6408;59.388;17.798;2022-07-15T09:25:54;1.63;;;0.75;;
12687;SDS011;6408;59.388;17.798;2022-07-15T09:28:34;2.00;;;0.70;;
12687;SDS011;6408;59.388;17.798;2022-07-15T09:31:03;0.77;;;0.43;;
12687;SDS011;6408;59.388;17.798;2022-07-15T09:33:49;1.35;;;0.68;;
12687;SDS011;6408;59.388;17.798;2022-07-15T09:36:19;1.77;;;0.80;;
12687;SDS011;6408;59.388;17.798;2022-07-15T09:38:48;1.20;;;0.63;;
12687;SDS011;6408;59.388;17.798;2022-07-15T09:41:19;1.08;;;0.60;;
12687;SDS011;6408;59.388;17.798;2022-07-15T09:43:53;1.38;;;0.70;;
12687;SDS011;6408;59.388;17.798;2022-07-15T09:46:22;2.45;;;0.70;;
12687;SDS011;6408;59.388;17.798;2022-07-15T09:48:52;0.63;;;0.50;;
12687;SDS011;6408;59.388;17.798;2022-07-15T09:51:19;1.92;;;0.63;;
12687;SDS011;6408;59.388;17.798;2022-07-15T09:53:47;2.15;;;0.73;;
12687;SDS011;6408;59.388;17.798;2022-07-15T09:56:16;1.30;;;0.65;;
12687;SDS011;6408;59.388;17.798;2022-07-15T09:58:48;1.42;;;0.73;;
12687;SDS011;6408;59.388;17.798;2022-07-15T10:01:15;1.38;;;0.70;;
12687;SDS011;6408;59.388;17.798;2022-07-15T10:03:42;0.80;;;0.80;;
12687;SDS011;6408;59.388;17.798;2022-07-15T10:06:10;1.00;;;0.60;;
12687;SDS011;6408;59.388;17.798;2022-07-15T10:08:39;0.88;;;0.50;;
12687;SDS011;6408;59.388;17.798;2022-07-15T10:11:11;0.95;;;0.63;;
12687;SDS011;6408;59.388;17.798;2022-07-15T10:13:42;1.02;;;0.50;;
12687;SDS011;6408;59.388;17.798;2022-07-15T10:16:48;2.47;;;0.68;;
12687;SDS011;6408;59.388;17.798;2022-07-15T10:19:26;1.33;;;0.70;;
12687;SDS011;6408;59.388;17.798;2022-07-15T10:22:08;1.92;;;0.57;;
12687;SDS011;6408;59.388;17.798;2022-07-15T10:24:52;1.05;;;0.55;;
12687;SDS011;6408;59.388;17.798;2022-07-15T10:27:31;0.90;;;0.70;;
12687;SDS011;6408;59.388;17.798;2022-07-15T10:30:12;0.45;;;0.30;;
12687;SDS011;6408;59.388;17.798;2022-07-15T10:35:36;1.95;;;0.82;;
12687;SDS011;6408;59.388;17.798;2022-07-15T10:38:28;1.35;;;0.40;;
12687;SDS011;6408;59.388;17.798;2022-07-15T10:41:02;0.85;;;0.50;;
12687;SDS011;6408;59.388;17.798;2022-07-15T10:43:38;1.58;;;0.70;;
12687;SDS011;6408;59.388;17.798;2022-07-15T10:46:19;3.05;;;0.90;;
12687;SDS011;6408;59.388;17.798;2022-07-15T10:48:51;1.98;;;0.60;;
12687;SDS011;6408;59.388;17.798;2022-07-15T10:51:43;1.15;;;0.60;;
12687;SDS011;6408;59.388;17.798;2022-07-15T10:57:06;2.10;;;0.65;;
12687;SDS011;6408;59.388;17.798;2022-07-15T10:59:35;3.25;;;0.60;;
12687;SDS011;6408;59.388;17.798;2022-07-15T11:02:12;1.70;;;0.90;;
12687;SDS011;6408;59.388;17.798;2022-07-15T11:04:41;1.92;;;0.70;;
12687;SDS011;6408;59.388;17.798;2022-07-15T11:07:19;1.90;;;0.60;;
12687;SDS011;6408;59.388;17.798;2022-07-15T11:09:51;0.88;;;0.50;;
12687;SDS011;6408;59.388;17.798;2022-07-15T11:12:20;2.20;;;0.75;;
12687;SDS011;6408;59.388;17.798;2022-07-15T11:14:49;3.40;;;0.80;;
12687;SDS011;6408;59.388;17.798;2022-07-15T11:17:18;1.13;;;0.60;;
12687;SDS011;6408;59.388;17.798;2022-07-15T11:19:47;1.10;;;0.50;;
12687;SDS011;6408;59.388;17.798;2022-07-15T11:22:16;0.85;;;0.63;;
12687;SDS011;6408;59.388;17.798;2022-07-15T11:24:44;1.17;;;0.50;;
12687;SDS011;6408;59.388;17.798;2022-07-15T11:27:14;1.38;;;0.43;;
12687;SDS011;6408;59.388;17.798;2022-07-15T11:29:45;1.35;;;0.60;;
12687;SDS011;6408;59.388;17.798;2022-07-15T11:32:14;1.63;;;0.73;;
12687;SDS011;6408;59.388;17.798;2022-07-15T11:34:43;3.78;;;0.88;;
12687;SDS011;6408;59.388;17.798;2022-07-15T11:37:11;3.20;;;0.60;;
12687;SDS011;6408;59.388;17.798;2022-07-15T11:39:43;0.50;;;0.50;;
12687;SDS011;6408;59.388;17.798;2022-07-15T11:42:18;2.17;;;0.70;;
12687;SDS011;6408;59.388;17.798;2022-07-15T11:45:03;1.83;;;0.45;;
12687;SDS011;6408;59.388;17.798;2022-07-15T11:47:31;1.50;;;0.57;;
12687;SDS011;6408;59.388;17.798;2022-07-15T11:49:58;1.30;;;0.88;;
12687;SDS011;6408;59.388;17.798;2022-07-15T11:52:25;1.77;;;0.70;;
12687;SDS011;6408;59.388;17.798;2022-07-15T11:54:52;1.10;;;0.68;;
12687;SDS011;6408;59.388;17.798;2022-07-15T11:57:21;1.00;;;0.40;;
12687;SDS011;6408;59.388;17.798;2022-07-15T11:59:50;1.35;;;0.75;;
12687;SDS011;6408;59.388;17.798;2022-07-15T12:02:22;2.08;;;0.50;;
12687;SDS011;6408;59.388;17.798;2022-07-15T12:04:51;1.02;;;0.60;;
12687;SDS011;6408;59.388;17.798;2022-07-15T12:07:37;2.40;;;0.70;;
12687;SDS011;6408;59.388;17.798;2022-07-15T12:10:06;0.57;;;0.47;;
12687;SDS011;6408;59.388;17.798;2022-07-15T12:12:35;0.57;;;0.57;;
12687;SDS011;6408;59.388;17.798;2022-07-15T12:15:06;0.60;;;0.57;;
12687;SDS011;6408;59.388;17.798;2022-07-15T12:17:34;1.23;;;0.47;;
12687;SDS011;6408;59.388;17.798;2022-07-15T12:20:01;0.35;;;0.30;;
12687;SDS011;6408;59.388;17.798;2022-07-15T12:22:30;1.45;;;0.60;;
12687;SDS011;6408;59.388;17.798;2022-07-15T12:24:57;0.55;;;0.50;;
12687;SDS011;6408;59.388;17.798;2022-07-15T12:27:31;0.47;;;0.47;;
12687;SDS011;6408;59.388;17.798;2022-07-15T12:30:01;1.20;;;0.68;;
12687;SDS011;6408;59.388;17.798;2022-07-15T12:32:29;0.88;;;0.50;;
12687;SDS011;6408;59.388;17.798;2022-07-15T12:34:57;0.47;;;0.30;;
12687;SDS011;6408;59.388;17.798;2022-07-15T12:37:25;2.15;;;0.55;;
12687;SDS011;6408;59.388;17.798;2022-07-15T12:39:55;0.60;;;0.40;;
12687;SDS011;6408;59.388;17.798;2022-07-15T12:42:23;0.40;;;0.40;;
12687;SDS011;6408;59.388;17.798;2022-07-15T12:50:22;0.30;;;0.30;;
12687;SDS011;6408;59.388;17.798;2022-07-15T12:52:49;0.50;;;0.50;;
12687;SDS011;6408;59.388;17.798;2022-07-15T12:55:16;0.70;;;0.50;;
12687;SDS011;6408;59.388;17.798;2022-07-15T12:57:45;1.67;;;0.25;;
12687;SDS011;6408;59.388;17.798;2022-07-15T13:00:15;1.38;;;0.50;;
12687;SDS011;6408;59.388;17.798;2022-07-15T13:02:54;0.85;;;0.32;;
12687;SDS011;6408;59.388;17.798;2022-07-15T13:05:23;0.85;;;0.43;;
12687;SDS011;6408;59.388;17.798;2022-07-15T13:07:50;0.32;;;0.30;;
12687;SDS011;6408;59.388;17.798;2022-07-15T13:10:16;0.30;;;0.30;;
12687;SDS011;6408;59.388;17.798;2022-07-15T13:12:43;0.57;;;0.43;;
12687;SDS011;6408;59.388;17.798;2022-07-15T13:15:10;0.60;;;0.50;;
12687;SDS011;6408;59.388;17.798;2022-07-15T13:17:38;0.20;;;0.20;;
12687;SDS011;6408;59.388;17.798;2022-07-15T13:20:05;0.70;;;0.38;;
12687;SDS011;6408;59.388;17.798;2022-07-15T13:22:33;0.68;;;0.47;;
12687;SDS011;6408;59.388;17.798;2022-07-15T13:25:00;0.68;;;0.40;;
12687;SDS011;6408;59.388;17.798;2022-07-15T13:27:27;0.70;;;0.35;;
12687;SDS011;6408;59.388;17.798;2022-07-15T13:29:53;2.35;;;0.60;;
12687;SDS011;6408;59.388;17.798;2022-07-15T13:32:20;0.60;;;0.40;;
12687;SDS011;6408;59.388;17.798;2022-07-15T13:34:48;1.35;;;0.50;;
12687;SDS011;6408;59.388;17.798;2022-07-15T13:37:15;1.42;;;0.60;;
12687;SDS011;6408;59.388;17.798;2022-07-15T13:39:42;1.27;;;0.50;;
12687;SDS011;6408;59.388;17.798;2022-07-15T13:42:08;0.52;;;0.40;;
12687;SDS011;6408;59.388;17.798;2022-07-15T13:44:35;0.95;;;0.30;;
12687;SDS011;6408;59.388;17.798;2022-07-15T13:47:02;1.00;;;0.55;;
12687;SDS011;6408;59.388;17.798;2022-07-15T13:49:29;0.75;;;0.50;;
12687;SDS011;6408;59.388;17.798;2022-07-15T13:52:14;0.80;;;0.30;;
12687;SDS011;6408;59.388;17.798;2022-07-15T13:54:41;1.40;;;0.50;;
12687;SDS011;6408;59.388;17.798;2022-07-15T13:57:07;0.73;;;0.40;;
12687;SDS011;6408;59.388;17.798;2022-07-15T13:59:34;0.40;;;0.40;;
12687;SDS011;6408;59.388;17.798;2022-07-15T14:02:01;0.55;;;0.47;;
12687;SDS011;6408;59.388;17.798;2022-07-15T14:04:29;1.35;;;0.35;;
12687;SDS011;6408;59.388;17.798;2022-07-15T14:06:56;0.32;;;0.32;;
12687;SDS011;6408;59.388;17.798;2022-07-15T14:09:24;0.43;;;0.25;;
12687;SDS011;6408;59.388;17.798;2022-07-15T14:11:51;0.50;;;0.30;;
12687;SDS011;6408;59.388;17.798;2022-07-15T14:14:18;0.60;;;0.43;;
12687;SDS011;6408;59.388;17.798;2022-07-15T14:16:44;1.05;;;0.40;;
12687;SDS011;6408;59.388;17.798;2022-07-15T14:19:12;2.03;;;0.45;;
12687;SDS011;6408;59.388;17.798;2022-07-15T14:21:39;0.25;;;0.25;;
12687;SDS011;6408;59.388;17.798;2022-07-15T14:24:06;0.40;;;0.40;;
12687;SDS011;6408;59.388;17.798;2022-07-15T14:26:34;0.47;;;0.32;;
12687;SDS011;6408;59.388;17.798;2022-07-15T14:29:01;0.30;;;0.30;;
12687;SDS011;6408;59.388;17.798;2022-07-15T14:31:28;0.40;;;0.40;;
12687;SDS011;6408;59.388;17.798;2022-07-15T14:33:55;0.40;;;0.40;;
12687;SDS011;6408;59.388;17.798;2022-07-15T14:36:21;0.90;;;0.35;;
12687;SDS011;6408;59.388;17.798;2022-07-15T14:38:49;0.40;;;0.40;;
12687;SDS011;6408;59.388;17.798;2022-07-15T14:41:15;2.67;;;0.40;;
12687;SDS011;6408;59.388;17.798;2022-07-15T14:43:44;1.77;;;0.38;;
12687;SDS011;6408;59.388;17.798;2022-07-15T14:46:10;1.55;;;0.47;;
12687;SDS011;6408;59.388;17.798;2022-07-15T14:48:37;2.13;;;0.40;;
12687;SDS011;6408;59.388;17.798;2022-07-15T14:51:04;1.65;;;0.52;;
12687;SDS011;6408;59.388;17.798;2022-07-15T14:53:31;0.15;;;0.15;;
12687;SDS011;6408;59.388;17.798;2022-07-15T14:55:58;1.02;;;0.47;;
12687;SDS011;6408;59.388;17.798;2022-07-15T14:58:25;0.40;;;0.30;;
12687;SDS011;6408;59.388;17.798;2022-07-15T15:00:53;0.30;;;0.30;;
12687;SDS011;6408;59.388;17.798;2022-07-15T15:03:20;0.57;;;0.30;;
12687;SDS011;6408;59.388;17.798;2022-07-15T15:05:46;0.22;;;0.22;;
12687;SDS011;6408;59.388;17.798;2022-07-15T15:08:13;2.55;;;0.47;;
12687;SDS011;6408;59.388;17.798;2022-07-15T15:10:41;0.17;;;0.13;;
12687;SDS011;6408;59.388;17.798;2022-07-15T15:13:08;1.60;;;0.40;;